Time;durP1;ratioP1;P1;durP2;ratioP2;P2;SDS_P1;SDS_P2;PMS_P1;PMS_P2;Temp;Humidity;BMP_temperature;BMP_pressure;BME280_temperature;BME280_humidity;BME280_pressure;Samples;Min_cycle;Max_cycle;Signal;HPM_P1;HPM_P2
2024/02/28 00:00:10;;;;;;;27.00;11.73;;;;;;;-0.49;56.75;101939.03;4987072;28;20669;-72
2024/02/28 00:02:37;;;;;;;23.95;10.20;;;;;;;-0.20;55.67;101943.09;4940106;28;20060;-73
2024/02/28 00:05:05;;;;;;;32.35;10.50;;;;;;;-0.20;55.55;101943.09;4962574;28;20040;-72
2024/02/28 00:07:30;;;;;;;20.88;9.35;;;;;;;-0.07;55.16;101930.53;4997176;28;20060;-72
2024/02/28 00:09:57;;;;;;;26.17;10.75;;;;;;;-0.80;57.21;101943.44;4990990;28;20029;-73
2024/02/28 00:12:26;;;;;;;28.10;11.07;;;;;;;-0.52;56.67;101944.09;4963641;28;20926;-74
2024/02/28 00:14:53;;;;;;;19.27;9.40;;;;;;;-0.25;56.09;101937.00;4946579;28;20033;-73
2024/02/28 00:17:21;;;;;;;23.55;11.20;;;;;;;-0.48;56.54;101930.47;4983101;28;20056;-73
2024/02/28 00:19:47;;;;;;;31.60;10.65;;;;;;;-0.36;55.82;101930.75;4993288;28;20399;-73
2024/02/28 00:22:12;;;;;;;21.27;9.77;;;;;;;-0.58;56.72;101920.00;4974730;28;20033;-73
2024/02/28 00:24:37;;;;;;;25.35;11.00;;;;;;;-0.59;56.65;101918.28;4997687;28;20042;-73
2024/02/28 00:27:05;;;;;;;23.85;11.18;;;;;;;-0.76;57.12;101922.13;4985838;28;20045;-73
2024/02/28 00:29:30;;;;;;;29.35;10.85;;;;;;;-0.42;56.11;101933.19;4998298;28;20039;-73
2024/02/28 00:31:56;;;;;;;23.98;10.70;;;;;;;-0.35;55.69;101927.34;4987174;28;20043;-73
2024/02/28 00:34:21;;;;;;;31.05;10.40;;;;;;;-0.39;56.24;101935.84;4992217;28;20037;-73
2024/02/28 00:36:47;;;;;;;19.42;10.65;;;;;;;-0.24;55.75;101931.03;4987710;28;20040;-74
2024/02/28 00:39:14;;;;;;;25.88;11.80;;;;;;;-0.68;57.01;101930.91;4983639;28;20887;-73
2024/02/28 00:41:42;;;;;;;25.65;11.85;;;;;;;-0.41;56.44;101932.38;4989775;28;20048;-74
2024/02/28 00:44:07;;;;;;;29.35;10.63;;;;;;;-0.50;56.50;101927.91;4961568;28;20037;-73
2024/02/28 00:46:33;;;;;;;27.33;10.82;;;;;;;-0.33;55.98;101925.69;4970596;28;20157;-73
2024/02/28 00:48:58;;;;;;;26.83;10.00;;;;;;;-0.26;56.21;101927.56;4937553;28;20038;-73
2024/02/28 00:51:24;;;;;;;28.02;10.52;;;;;;;-0.11;56.10;101923.59;4953370;28;20673;-73
2024/02/28 00:53:49;;;;;;;25.92;11.30;;;;;;;-0.44;56.11;101922.88;4933754;28;20063;-73
2024/02/28 00:56:15;;;;;;;24.20;9.60;;;;;;;-0.32;56.42;101930.00;4958016;28;21304;-75
2024/02/28 00:58:43;;;;;;;26.20;11.20;;;;;;;-0.20;55.86;101931.97;4961457;28;20037;-76
2024/02/28 01:01:09;;;;;;;20.30;9.18;;;;;;;-0.49;56.47;101936.47;4929527;28;20880;-73
2024/02/28 01:03:34;;;;;;;23.33;10.52;;;;;;;-0.39;56.69;101938.41;4952916;28;20215;-73
2024/02/28 01:06:01;;;;;;;35.20;10.95;;;;;;;-0.71;56.93;101938.50;4953119;28;20033;-77
2024/02/28 01:08:27;;;;;;;26.08;10.52;;;;;;;-0.46;56.38;101928.81;4959135;28;20017;-71
2024/02/28 01:10:52;;;;;;;26.55;10.77;;;;;;;-0.46;56.97;101934.84;4946236;28;20045;-73
2024/02/28 01:13:18;;;;;;;27.05;10.45;;;;;;;-0.60;56.88;101931.94;4932548;28;21531;-73
2024/02/28 01:15:43;;;;;;;28.38;10.20;;;;;;;-0.28;56.21;101941.19;4997654;28;20040;-73
2024/02/28 01:18:10;;;;;;;31.90;11.35;;;;;;;-0.99;58.04;101937.84;4972433;28;20041;-73
2024/02/28 01:20:35;;;;;;;26.70;10.38;;;;;;;-0.45;56.80;101933.13;4993062;28;20407;-73
2024/02/28 01:23:01;;;;;;;29.98;11.13;;;;;;;-0.36;57.12;101935.91;4969440;28;20033;-73
2024/02/28 01:25:27;;;;;;;30.80;11.10;;;;;;;-0.17;56.33;101939.72;5000119;28;20039;-72
2024/02/28 01:27:52;;;;;;;24.70;11.38;;;;;;;-0.13;56.30;101920.97;4976347;28;20793;-77
2024/02/28 01:30:18;;;;;;;26.48;10.98;;;;;;;-0.09;55.90;101919.34;4960008;28;20029;-78
2024/02/28 01:32:44;;;;;;;25.13;9.65;;;;;;;-0.11;55.76;101915.88;5000953;28;20073;-78
2024/02/28 01:35:10;;;;;;;32.08;12.65;;;;;;;-0.09;55.98;101909.06;4975677;28;20037;-77
2024/02/28 01:37:35;;;;;;;26.52;10.38;;;;;;;0.01;55.58;101910.97;4993057;28;20056;-78
2024/02/28 01:40:01;;;;;;;30.60;12.88;;;;;;;-0.06;55.98;101919.41;4977798;28;20132;-76
2024/02/28 01:42:26;;;;;;;30.80;10.93;;;;;;;-0.16;55.67;101908.94;4951786;28;20488;-79
2024/02/28 01:44:52;;;;;;;26.70;11.80;;;;;;;-0.15;55.89;101918.41;5000875;28;20037;-72
2024/02/28 01:47:18;;;;;;;27.90;9.95;;;;;;;-0.40;56.47;101916.13;4985640;28;20518;-73
2024/02/28 01:49:45;;;;;;;28.15;10.23;;;;;;;-0.38;56.89;101911.88;4956673;28;20033;-73
2024/02/28 01:52:12;;;;;;;32.08;11.38;;;;;;;-0.42;56.54;101921.22;4951436;28;20045;-72
2024/02/28 01:54:38;;;;;;;30.92;11.57;;;;;;;-0.65;57.42;101913.00;4980084;28;20064;-72
2024/02/28 01:57:06;;;;;;;30.55;10.50;;;;;;;-0.41;57.12;101911.81;4983533;28;20112;-71
2024/02/28 01:59:32;;;;;;;26.77;10.90;;;;;;;-0.53;57.25;101916.66;4981042;28;20116;-72
2024/02/28 02:01:57;;;;;;;30.85;12.15;;;;;;;-0.65;57.90;101918.13;4988559;28;20037;-71
2024/02/28 02:04:23;;;;;;;30.40;14.00;;;;;;;-0.43;57.58;101908.34;4980415;28;20172;-71
2024/02/28 02:06:54;;;;;;;29.92;11.63;;;;;;;-0.32;56.99;101917.16;4976315;28;20033;-72
2024/02/28 02:09:19;;;;;;;29.38;12.85;;;;;;;-0.16;56.51;101906.38;4989263;28;20262;-71
2024/02/28 02:11:45;;;;;;;29.33;11.57;;;;;;;-0.30;56.64;101906.91;4974232;28;20677;-71
2024/02/28 02:14:10;;;;;;;32.90;13.35;;;;;;;-0.39;56.61;101899.88;4985031;28;20929;-71
2024/02/28 02:16:36;;;;;;;30.20;11.63;;;;;;;-0.66;57.99;101895.88;4976102;28;20535;-71
2024/02/28 02:19:02;;;;;;;32.20;11.82;;;;;;;-0.61;57.73;101899.38;4973892;28;20525;-71
2024/02/28 02:21:34;;;;;;;29.50;12.77;;;;;;;-0.76;58.00;101905.03;4977820;28;20097;-72
2024/02/28 02:24:00;;;;;;;35.00;13.13;;;;;;;-0.70;58.04;101903.47;4989488;28;20037;-72
2024/02/28 02:26:25;;;;;;;30.77;12.07;;;;;;;-0.66;57.96;101910.38;4988717;28;20042;-72
2024/02/28 02:28:51;;;;;;;30.98;13.30;;;;;;;-0.96;59.03;101913.97;4971551;28;20384;-73
2024/02/28 02:31:17;;;;;;;32.25;12.15;;;;;;;-0.58;57.82;101914.84;4970330;28;20052;-73
2024/02/28 02:33:42;;;;;;;31.52;14.00;;;;;;;-1.14;59.78;101910.91;4959941;28;20033;-74
2024/02/28 02:36:08;;;;;;;33.33;12.90;;;;;;;-0.80;58.77;101903.22;4950930;28;20045;-73
2024/02/28 02:38:33;;;;;;;34.83;12.80;;;;;;;-0.64;58.22;101909.59;4958489;28;20125;-73
2024/02/28 02:40:59;;;;;;;32.47;12.77;;;;;;;-0.65;57.84;101918.13;4950462;28;20129;-73
2024/02/28 02:43:27;;;;;;;35.65;13.35;;;;;;;-0.33;57.75;101920.53;4931602;28;21280;-74
2024/02/28 02:45:52;;;;;;;32.67;12.95;;;;;;;-0.37;57.47;101918.75;4955836;28;20045;-73
2024/02/28 02:48:18;;;;;;;31.63;12.05;;;;;;;-0.42;57.39;101917.78;4929802;28;20241;-74
2024/02/28 02:50:44;;;;;;;33.25;13.20;;;;;;;-1.05;59.12;101912.03;4944934;28;20033;-72
2024/02/28 02:53:10;;;;;;;34.70;12.40;;;;;;;-0.67;58.08;101913.78;4957312;28;20017;-74
2024/02/28 02:55:36;;;;;;;37.30;12.98;;;;;;;-0.53;58.11;101908.97;4961514;28;20116;-73
2024/02/28 02:58:02;;;;;;;31.75;12.80;;;;;;;-0.67;57.71;101909.50;4994353;28;20041;-72
2024/02/28 03:00:28;;;;;;;25.40;12.88;;;;;;;-0.81;58.31;101903.19;4975073;28;20879;-72
2024/02/28 03:02:54;;;;;;;33.60;11.65;;;;;;;-0.68;58.60;101905.22;4979332;28;20033;-73
2024/02/28 03:05:19;;;;;;;35.42;13.40;;;;;;;-0.24;57.23;101895.06;4967544;28;20294;-72
2024/02/28 03:07:45;;;;;;;34.63;12.32;;;;;;;-0.31;57.02;101906.03;4968014;28;20163;-72
2024/02/28 03:10:11;;;;;;;33.42;12.27;;;;;;;-0.29;57.46;101906.94;4964615;28;20037;-72
2024/02/28 03:12:36;;;;;;;32.13;13.50;;;;;;;-0.59;57.93;101902.88;4996276;28;20546;-73
2024/02/28 03:15:03;;;;;;;36.70;13.95;;;;;;;-0.67;58.24;101894.09;4991671;28;20025;-72
2024/02/28 03:17:29;;;;;;;42.97;12.52;;;;;;;-0.61;58.17;101893.41;4974196;28;21052;-73
2024/02/28 03:19:56;;;;;;;38.67;14.95;;;;;;;-0.67;58.43;101888.13;4974978;28;20037;-73
2024/02/28 03:22:22;;;;;;;36.58;13.27;;;;;;;-0.68;58.25;101883.78;4969008;28;20049;-74
2024/02/28 03:24:48;;;;;;;34.67;13.13;;;;;;;-0.65;58.62;101892.44;5001197;28;20037;-71
2024/02/28 03:27:14;;;;;;;34.55;12.82;;;;;;;-0.85;58.59;101893.69;4984268;28;20116;-72
2024/02/28 03:29:39;;;;;;;33.13;14.15;;;;;;;-1.26;59.43;101896.94;4995189;28;20173;-79
2024/02/28 03:32:05;;;;;;;27.45;12.60;;;;;;;-0.74;58.98;101899.94;5007214;28;20038;-81
2024/02/28 03:34:31;;;;;;;37.88;15.63;;;;;;;-0.70;58.72;101901.75;4982927;28;20048;-79
2024/02/28 03:36:57;;;;;;;35.00;15.00;;;;;;;-0.65;58.31;101901.84;5008035;28;20051;-77
2024/02/28 03:39:23;;;;;;;45.55;16.60;;;;;;;-0.85;59.13;101899.69;4985594;28;20219;-77
2024/02/28 03:41:48;;;;;;;34.63;14.98;;;;;;;-0.43;58.14;101903.22;5000602;28;23467;-77
2024/02/28 03:44:14;;;;;;;36.38;14.43;;;;;;;-0.47;57.93;101907.41;4977957;28;20418;-79
2024/02/28 03:46:39;;;;;;;36.38;13.57;;;;;;;-1.07;59.98;101908.53;4987433;28;20061;-79
2024/02/28 03:49:07;;;;;;;30.70;13.02;;;;;;;-0.65;59.00;101909.56;5011154;28;20013;-80
2024/02/28 03:51:42;;;;;;;34.35;14.55;;;;;;;-0.73;58.87;101908.50;4996073;28;20429;-70
2024/02/28 03:54:08;;;;;;;37.30;14.30;;;;;;;-0.52;58.28;101913.28;4993932;28;20282;-71
2024/02/28 03:56:35;;;;;;;37.75;13.50;;;;;;;-0.54;58.42;101915.81;4940007;28;20046;-70
2024/02/28 03:59:01;;;;;;;44.08;15.63;;;;;;;-0.38;57.72;101917.00;4954259;28;20165;-71
2024/02/28 04:01:26;;;;;;;39.30;15.18;;;;;;;-0.58;58.20;101914.84;4955672;28;20052;-70
2024/02/28 04:03:52;;;;;;;42.50;16.45;;;;;;;-0.71;58.85;101919.69;4942287;28;20034;-70
2024/02/28 04:06:18;;;;;;;45.65;15.95;;;;;;;-1.08;59.98;101911.94;4939649;28;20050;-71
2024/02/28 04:08:43;;;;;;;38.85;15.25;;;;;;;-1.08;60.11;101917.06;4957679;28;20037;-70
2024/02/28 04:11:09;;;;;;;37.50;13.55;;;;;;;-1.10;60.13;101913.59;4977469;28;20136;-71
2024/02/28 04:13:34;;;;;;;43.92;15.63;;;;;;;-0.65;59.38;101914.69;4993576;28;20543;-71
2024/02/28 04:16:06;;;;;;;44.00;14.23;;;;;;;-0.95;60.13;101912.25;5004612;28;20068;-71
2024/02/28 04:18:32;;;;;;;;;;;;;;;-0.95;59.76;101912.25;4975611;28;20124;-71
2024/02/28 04:20:58;;;;;;;39.97;14.18;;;;;;;-1.07;60.56;101905.09;4963886;28;19925;-70
2024/02/28 04:23:24;;;;;;;46.20;14.38;;;;;;;-0.82;59.90;101909.16;4966044;28;20510;-70
2024/02/28 04:25:50;;;;;;;40.85;14.75;;;;;;;-0.68;59.43;101907.78;4972749;28;20049;-71
2024/02/28 04:28:17;;;;;;;37.20;13.50;;;;;;;-1.09;60.47;101905.03;4986832;28;20041;-71
2024/02/28 04:30:43;;;;;;;33.50;14.73;;;;;;;-0.77;60.09;101898.16;4992652;28;20725;-70
2024/02/28 04:33:09;;;;;;;32.97;13.27;;;;;;;-1.16;60.60;101903.16;4992426;28;20041;-71
2024/02/28 04:35:34;;;;;;;44.55;14.90;;;;;;;-0.84;60.17;101900.53;4987655;28;20032;-70
2024/02/28 04:38:00;;;;;;;40.65;13.80;;;;;;;-0.38;59.09;101909.31;4995382;28;20044;-71
2024/02/28 04:40:25;;;;;;;40.65;15.48;;;;;;;-0.78;59.87;101900.69;4984462;28;20971;-70
2024/02/28 04:42:51;;;;;;;38.03;14.70;;;;;;;-0.76;59.82;101911.88;4979083;28;20037;-70
2024/02/28 04:45:16;;;;;;;38.72;15.15;;;;;;;-0.41;58.96;101902.41;4988195;28;20040;-71
2024/02/28 04:47:45;;;;;;;44.60;14.95;;;;;;;-0.69;59.62;101903.47;4991231;28;20053;-71
2024/02/28 04:50:11;;;;;;;37.30;14.23;;;;;;;-0.61;59.08;101901.97;4977301;28;20029;-71
2024/02/28 04:52:36;;;;;;;44.17;15.23;;;;;;;-0.61;59.08;101899.38;4957952;28;20055;-71
2024/02/28 04:55:02;;;;;;;46.55;15.93;;;;;;;-0.74;59.35;101906.78;4994416;28;20017;-70
2024/02/28 04:57:28;;;;;;;42.08;12.85;;;;;;;-0.48;58.75;101907.34;4983602;28;20818;-71
2024/02/28 04:59:54;;;;;;;42.90;15.57;;;;;;;-0.62;58.72;101902.78;4996401;28;20117;-71
2024/02/28 05:02:21;;;;;;;47.20;15.50;;;;;;;-1.31;61.06;101910.47;4983516;28;23148;-71
2024/02/28 05:04:47;;;;;;;40.67;14.20;;;;;;;-0.80;59.94;101912.63;4980310;28;20512;-70
2024/02/28 05:07:13;;;;;;;42.50;15.43;;;;;;;-0.68;59.61;101917.16;4970228;28;20116;-71
2024/02/28 05:09:39;;;;;;;40.83;14.30;;;;;;;-0.71;59.64;101917.97;4969232;28;20860;-75
2024/02/28 05:12:05;;;;;;;45.90;17.58;;;;;;;-0.59;59.31;101910.56;4937412;28;20041;-70
2024/02/28 05:14:33;;;;;;;39.75;14.77;;;;;;;-0.89;59.70;101913.25;4951223;28;20037;-72
2024/02/28 05:16:58;;;;;;;56.03;17.77;;;;;;;-1.86;62.27;101918.41;4932955;28;20044;-73
2024/02/28 05:19:24;;;;;;;34.65;13.63;;;;;;;-1.00;60.86;101914.72;4949604;28;20033;-71
2024/02/28 05:21:49;;;;;;;41.05;15.15;;;;;;;-0.78;60.46;101913.53;4957048;28;20650;-73
2024/02/28 05:24:15;;;;;;;43.70;16.60;;;;;;;-0.56;59.39;101918.34;4990146;28;20037;-72
2024/02/28 05:26:40;;;;;;;39.75;15.25;;;;;;;-0.85;60.31;101924.50;4992182;28;20704;-71
2024/02/28 05:29:06;;;;;;;41.17;13.85;;;;;;;-0.86;60.12;101915.94;4997419;28;20095;-72
2024/02/28 05:31:32;;;;;;;41.30;15.25;;;;;;;-1.35;61.65;101922.38;4966832;28;20365;-70
2024/02/28 05:33:58;;;;;;;38.65;13.27;;;;;;;-1.47;61.13;101916.88;4998039;28;20029;-70
2024/02/28 05:36:25;;;;;;;47.78;14.95;;;;;;;-1.56;62.80;101938.03;4983688;28;20041;-70
2024/02/28 05:38:55;;;;;;;47.72;15.85;;;;;;;-0.73;60.76;101923.91;4970251;28;20048;-70
2024/02/28 05:41:21;;;;;;;48.97;17.85;;;;;;;-0.64;60.11;101925.00;4969953;28;20862;-70
2024/02/28 05:43:47;;;;;;;51.10;16.33;;;;;;;-1.53;62.00;101920.19;4996807;28;20033;-71
2024/02/28 05:46:13;;;;;;;51.42;17.05;;;;;;;-1.05;61.14;101922.28;4988029;28;20034;-71
2024/02/28 05:48:41;;;;;;;48.63;18.63;;;;;;;-1.04;60.80;101918.91;4972133;28;20033;-71
2024/02/28 05:51:06;;;;;;;45.22;15.75;;;;;;;-0.93;60.63;101915.72;4960365;28;20053;-72
2024/02/28 05:53:35;;;;;;;39.35;14.88;;;;;;;-0.47;59.88;101909.09;4961613;28;20036;-71
2024/02/28 05:56:01;;;;;;;46.85;14.57;;;;;;;-0.51;59.94;101905.59;4973804;28;20135;-72
2024/02/28 05:58:27;;;;;;;43.05;15.68;;;;;;;-0.52;59.74;101911.56;4957238;28;20117;-71
2024/02/28 06:00:52;;;;;;;47.00;16.67;;;;;;;-1.24;61.53;101910.69;4990724;28;20384;-69
2024/02/28 06:03:18;;;;;;;56.97;19.45;;;;;;;-0.98;61.50;101908.78;4965405;28;20092;-67
2024/02/28 06:05:43;;;;;;;48.55;16.83;;;;;;;-1.22;62.37;101914.16;4980535;28;20048;-70
2024/02/28 06:08:09;;;;;;;49.75;16.73;;;;;;;-0.72;61.21;101920.53;4993158;28;20054;-72
2024/02/28 06:10:34;;;;;;;52.83;17.42;;;;;;;-0.42;60.16;101920.34;4969358;28;20151;-75
2024/02/28 06:13:00;;;;;;;46.65;17.58;;;;;;;-0.69;60.56;101915.44;4977695;28;20037;-78
2024/02/28 06:15:26;;;;;;;52.08;16.08;;;;;;;-0.66;60.56;101918.97;4933533;28;20040;-74
2024/02/28 06:17:51;;;;;;;51.92;15.88;;;;;;;-0.54;60.84;101925.22;4969046;28;20526;-68
2024/02/28 06:20:17;;;;;;;48.83;17.05;;;;;;;-0.52;60.30;101923.56;4991905;28;20467;-69
2024/02/28 06:22:42;;;;;;;42.97;15.10;;;;;;;-0.49;60.27;101923.63;4981561;28;21352;-68
2024/02/28 06:25:18;;;;;;;48.13;16.80;;;;;;;-0.36;59.96;101925.63;4950571;28;20037;-71
2024/02/28 06:27:43;;;;;;;43.20;15.05;;;;;;;-0.70;60.47;101931.69;4966381;28;20076;-69
2024/02/28 06:30:09;;;;;;;51.92;16.27;;;;;;;-0.68;61.16;101937.72;4993176;28;20041;-69
2024/02/28 06:32:35;;;;;;;49.65;14.93;;;;;;;-1.17;62.64;101938.22;4961483;28;20110;-66
2024/02/28 06:35:00;;;;;;;48.15;16.60;;;;;;;-0.56;60.96;101938.00;4970390;28;20041;-69
2024/02/28 06:37:26;;;;;;;48.85;16.58;;;;;;;-0.27;60.34;101946.38;4961197;28;20072;-67
2024/02/28 06:39:52;;;;;;;56.13;17.65;;;;;;;-0.64;61.39;101944.66;4965810;28;20552;-69
2024/02/28 06:42:18;;;;;;;50.30;17.45;;;;;;;-0.54;60.91;101938.91;4980422;28;20041;-69
2024/02/28 06:44:44;;;;;;;52.20;16.90;;;;;;;-0.53;61.27;101943.22;4955813;28;21121;-69
2024/02/28 06:47:10;;;;;;;50.38;17.00;;;;;;;-0.46;60.91;101939.09;4958273;28;20056;-65
2024/02/28 06:49:35;;;;;;;55.38;16.30;;;;;;;-0.53;61.17;101952.63;4936469;28;20103;-68
2024/02/28 06:52:01;;;;;;;58.10;17.27;;;;;;;-0.92;62.46;101953.41;4984258;28;20136;-67
2024/02/28 06:54:28;;;;;;;51.72;16.75;;;;;;;-0.59;62.14;101958.50;4981242;28;20040;-69
2024/02/28 06:56:55;;;;;;;47.95;16.02;;;;;;;-0.37;61.68;101953.03;4953192;28;20045;-71
2024/02/28 06:59:20;;;;;;;45.70;17.42;;;;;;;-0.73;61.69;101955.56;4957034;28;20625;-69
2024/02/28 07:01:46;;;;;;;44.22;16.20;;;;;;;-0.53;61.78;101962.91;4981760;28;20495;-72
2024/02/28 07:04:12;;;;;;;54.58;18.00;;;;;;;-0.36;61.81;101964.16;4973842;28;20049;-66
2024/02/28 07:06:38;;;;;;;46.53;17.38;;;;;;;-0.03;60.72;101964.03;4962239;28;20752;-70
2024/02/28 07:09:03;;;;;;;54.58;15.65;;;;;;;-0.29;61.18;101960.88;4966844;28;20088;-70
2024/02/28 07:11:29;;;;;;;55.03;19.15;;;;;;;-1.36;63.74;101955.66;4951946;28;20149;-70
2024/02/28 07:13:57;;;;;;;46.35;16.58;;;;;;;-0.92;63.56;101968.81;4970811;28;20069;-67
2024/02/28 07:16:23;;;;;;;51.40;17.90;;;;;;;-0.10;60.82;101969.91;4951018;28;20048;-68
2024/02/28 07:18:48;;;;;;;47.42;16.73;;;;;;;-0.35;62.13;101969.34;4960537;28;20134;-68
2024/02/28 07:21:14;;;;;;;53.08;17.85;;;;;;;0.12;60.87;101981.47;4962134;28;20076;-68
2024/02/28 07:23:42;;;;;;;52.63;18.30;;;;;;;0.12;61.30;101978.91;4969246;28;20045;-69
2024/02/28 07:26:07;;;;;;;49.60;17.45;;;;;;;0.03;60.63;101978.72;4987849;28;20029;-68
2024/02/28 07:28:33;;;;;;;52.45;16.48;;;;;;;0.41;59.77;101983.78;4964500;28;20034;-67
2024/02/28 07:30:58;;;;;;;50.60;16.50;;;;;;;0.44;59.88;101984.72;4960299;28;20069;-67
2024/02/28 07:33:24;;;;;;;44.33;15.20;;;;;;;0.44;60.07;101991.59;4984954;28;20078;-68
2024/02/28 07:35:52;;;;;;;50.83;16.77;;;;;;;0.53;59.83;101994.34;4962264;28;20045;-69
2024/02/28 07:38:20;;;;;;;47.47;15.40;;;;;;;0.40;59.65;101992.34;4984242;28;20120;-68
2024/02/28 07:40:47;;;;;;;48.28;16.55;;;;;;;0.49;59.90;102001.09;4969962;28;20057;-68
2024/02/28 07:43:13;;;;;;;46.75;17.33;;;;;;;0.50;59.68;102009.69;4983268;28;20064;-66
2024/02/28 07:45:40;;;;;;;46.38;17.00;;;;;;;0.63;59.55;102006.53;4935173;28;20033;-68
2024/02/28 07:48:06;;;;;;;47.65;16.73;;;;;;;-0.41;61.76;102009.44;4980613;28;20034;-69
2024/02/28 07:50:31;;;;;;;45.13;16.70;;;;;;;-0.03;61.50;102012.88;4967061;28;20041;-66
2024/02/28 07:52:57;;;;;;;53.65;17.67;;;;;;;0.17;61.22;102010.75;4966303;28;20030;-68
2024/02/28 07:55:23;;;;;;;51.13;17.25;;;;;;;0.71;59.95;102013.53;4967989;28;20034;-68
2024/02/28 07:57:53;;;;;;;46.30;16.55;;;;;;;0.59;59.99;102011.56;4962269;28;20422;-68
2024/02/28 08:00:19;;;;;;;43.33;15.98;;;;;;;0.83;59.45;102016.34;4965231;28;20411;-68
2024/02/28 08:02:46;;;;;;;42.88;14.10;;;;;;;0.74;59.68;102029.03;4957904;28;20041;-68
2024/02/28 08:05:15;;;;;;;44.65;15.90;;;;;;;0.87;59.48;102028.44;4969481;28;20042;-66
2024/02/28 08:07:42;;;;;;;39.40;13.48;;;;;;;0.80;59.81;102027.44;4933066;28;20684;-68
2024/02/28 08:10:09;;;;;;;43.00;16.15;;;;;;;0.88;59.42;102032.72;4937879;28;20472;-70
2024/02/28 08:12:36;;;;;;;44.33;16.40;;;;;;;1.10;58.73;102034.88;4958938;28;20120;-68
2024/02/28 08:15:03;;;;;;;42.95;16.65;;;;;;;0.65;59.56;102040.88;4950732;28;20045;-69
2024/02/28 08:17:28;;;;;;;42.33;15.45;;;;;;;0.95;59.27;102044.91;4951073;28;20056;-67
2024/02/28 08:19:54;;;;;;;38.88;14.95;;;;;;;1.21;59.03;102037.63;4957591;28;20252;-68
2024/02/28 08:22:20;;;;;;;44.17;15.60;;;;;;;1.35;58.18;102050.78;4987350;28;20077;-68
2024/02/28 08:24:45;;;;;;;39.08;16.75;;;;;;;0.98;59.36;102050.09;4981522;28;20033;-65
2024/02/28 08:27:13;;;;;;;37.40;16.83;;;;;;;1.29;58.84;102053.22;4971056;28;20049;-68
2024/02/28 08:29:43;;;;;;;42.17;16.67;;;;;;;0.64;60.08;102059.72;4984536;28;20099;-67
2024/02/28 08:32:12;;;;;;;41.88;15.60;;;;;;;1.29;58.84;102060.97;4990988;28;20112;-65
2024/02/28 08:34:38;;;;;;;43.88;16.02;;;;;;;1.47;58.96;102066.47;4966130;28;20037;-68
2024/02/28 08:37:04;;;;;;;48.20;17.38;;;;;;;0.78;59.62;102061.72;4951951;28;20160;-67
2024/02/28 08:39:32;;;;;;;45.85;16.88;;;;;;;-0.17;62.76;102061.41;4966197;28;20029;-68
2024/02/28 08:42:00;;;;;;;43.83;17.27;;;;;;;0.77;60.98;102066.00;4981620;28;20053;-69
2024/02/28 08:44:26;;;;;;;49.97;17.33;;;;;;;0.90;60.41;102067.09;4982963;28;20037;-69
2024/02/28 08:46:52;;;;;;;44.75;17.25;;;;;;;1.47;59.03;102061.31;4981243;28;20132;-68
2024/02/28 08:49:17;;;;;;;39.63;15.48;;;;;;;1.16;58.92;102066.72;4941692;28;20438;-69
2024/02/28 08:51:43;;;;;;;41.45;15.55;;;;;;;1.57;58.94;102072.63;4957833;28;20041;-69
2024/02/28 08:54:08;;;;;;;49.15;17.95;;;;;;;1.16;59.68;102079.59;4986004;28;20914;-69
2024/02/28 08:56:34;;;;;;;40.85;16.75;;;;;;;0.86;60.11;102071.31;4986789;28;20041;-68
2024/02/28 08:58:59;;;;;;;47.25;17.02;;;;;;;1.29;59.55;102076.41;4968623;28;20039;-70
2024/02/28 09:01:25;;;;;;;48.33;16.02;;;;;;;1.46;59.10;102064.72;4948373;28;20037;-69
2024/02/28 09:03:50;;;;;;;45.95;16.85;;;;;;;1.28;59.81;102061.78;4957951;28;20044;-70
2024/02/28 09:06:16;;;;;;;43.92;17.13;;;;;;;1.29;59.99;102063.53;4991437;28;20052;-70
2024/02/28 09:08:42;;;;;;;44.65;18.08;;;;;;;1.07;60.40;102070.84;4985019;28;20041;-69
2024/02/28 09:11:08;;;;;;;42.38;16.65;;;;;;;1.50;59.38;102071.66;4972662;28;20226;-69
2024/02/28 09:13:37;;;;;;;50.70;19.65;;;;;;;2.00;58.17;102069.84;4966925;28;20758;-70
2024/02/28 09:16:02;;;;;;;45.75;16.67;;;;;;;2.38;57.49;102067.84;4975996;28;21063;-70
2024/02/28 09:18:30;;;;;;;45.42;17.08;;;;;;;2.14;57.72;102070.94;4984483;28;20085;-70
2024/02/28 09:20:56;;;;;;;41.25;17.13;;;;;;;2.20;58.09;102065.88;4976193;28;20961;-70
2024/02/28 09:23:21;;;;;;;47.33;18.63;;;;;;;2.28;57.21;102063.38;4951884;28;20112;-70
2024/02/28 09:25:49;;;;;;;42.88;17.20;;;;;;;2.40;57.56;102065.25;4955132;28;20048;-70
2024/02/28 09:28:16;;;;;;;40.92;16.48;;;;;;;2.59;56.61;102064.66;4971886;28;20045;-68
2024/02/28 09:30:42;;;;;;;41.72;15.02;;;;;;;2.54;56.69;102061.16;4978410;28;20037;-68
2024/02/28 09:33:08;;;;;;;44.15;16.88;;;;;;;2.03;58.26;102062.19;4981322;28;20679;-68
2024/02/28 09:35:36;;;;;;;50.03;18.50;;;;;;;2.19;57.63;102051.22;4968433;28;20541;-68
2024/02/28 09:38:02;;;;;;;39.25;14.80;;;;;;;2.16;58.75;102048.63;4974318;28;20973;-68
2024/02/28 09:40:28;;;;;;;39.53;15.95;;;;;;;2.46;57.64;102047.28;4990835;28;20252;-68
2024/02/28 09:43:03;;;;;;;49.05;16.77;;;;;;;1.72;59.54;102051.38;4971132;28;20553;-66
2024/02/28 09:45:30;;;;;;;44.45;16.92;;;;;;;2.34;57.58;102051.44;4981491;28;20038;-67
2024/02/28 09:48:03;;;;;;;48.22;17.35;;;;;;;2.77;57.27;102035.59;4971278;28;20037;-67
2024/02/28 09:50:29;;;;;;;41.58;16.15;;;;;;;3.19;56.72;102042.06;4972092;28;20041;-67
2024/02/28 09:52:54;;;;;;;43.30;17.38;;;;;;;2.92;57.04;102045.25;4972592;28;21015;-66
2024/02/28 09:55:20;;;;;;;39.28;15.57;;;;;;;3.45;55.77;102039.75;4955033;28;20516;-68
2024/02/28 09:57:51;;;;;;;45.25;16.52;;;;;;;3.91;54.37;102047.84;4958951;28;20043;-68
2024/02/28 10:00:20;;;;;;;40.67;16.58;;;;;;;4.31;53.88;102044.63;4952614;28;20038;-66
2024/02/28 10:02:48;;;;;;;42.50;16.35;;;;;;;4.70;52.40;102041.34;4959746;28;20037;-68
2024/02/28 10:05:14;;;;;;;44.22;16.30;;;;;;;3.69;54.54;102043.38;4978615;28;20033;-67
2024/02/28 10:07:40;;;;;;;41.47;17.02;;;;;;;3.69;54.82;102051.13;4986911;28;20510;-67
2024/02/28 10:10:08;;;;;;;38.50;15.38;;;;;;;3.28;54.59;102047.31;4957256;28;20033;-68
2024/02/28 10:12:36;;;;;;;50.83;17.23;;;;;;;3.89;54.18;102053.84;4954223;28;20193;-68
2024/02/28 10:15:02;;;;;;;41.40;17.15;;;;;;;4.21;54.82;102059.25;4943539;28;20037;-67
2024/02/28 10:17:28;;;;;;;44.47;17.45;;;;;;;3.38;55.83;102063.78;4915543;28;20446;-68
2024/02/28 10:19:53;;;;;;;45.70;16.85;;;;;;;4.02;54.31;102055.66;4954325;28;20438;-68
2024/02/28 10:22:19;;;;;;;41.85;16.13;;;;;;;3.16;56.16;102062.72;4959768;28;20210;-69
2024/02/28 10:24:45;;;;;;;54.92;18.08;;;;;;;4.00;55.23;102055.66;4946102;28;20037;-69
2024/02/28 10:27:15;;;;;;;42.00;16.00;;;;;;;4.16;54.37;102058.34;4985369;28;20044;-69
2024/02/28 10:29:44;;;;;;;45.60;16.90;;;;;;;4.20;55.05;102065.25;4975575;28;20041;-70
2024/02/28 10:32:10;;;;;;;38.15;16.50;;;;;;;4.24;54.16;102068.75;4967975;28;20116;-69
2024/02/28 10:34:37;;;;;;;39.63;17.27;;;;;;;3.62;55.79;102073.47;4991129;28;20494;-69
2024/02/28 10:37:05;;;;;;;43.08;16.90;;;;;;;3.68;56.63;102068.38;4983150;28;20661;-67
2024/02/28 10:39:32;;;;;;;52.40;19.48;;;;;;;3.38;57.56;102068.97;4973222;28;20234;-69
2024/02/28 10:42:00;;;;;;;59.20;18.80;;;;;;;3.66;56.45;102071.81;4947581;28;20905;-69
2024/02/28 10:44:27;;;;;;;45.53;16.00;;;;;;;3.84;56.22;102073.66;4963097;28;20086;-71
2024/02/28 10:46:53;;;;;;;41.70;17.75;;;;;;;3.85;56.03;102078.84;4983188;28;20168;-68
2024/02/28 10:49:19;;;;;;;37.75;15.48;;;;;;;3.75;56.37;102082.22;4987004;28;20060;-68
2024/02/28 10:51:48;;;;;;;44.75;18.77;;;;;;;3.52;56.15;102077.72;4988552;28;20041;-68
2024/02/28 10:54:14;;;;;;;40.70;16.15;;;;;;;3.55;56.44;102082.91;4944071;28;20056;-68
2024/02/28 10:56:41;;;;;;;45.90;17.20;;;;;;;2.75;58.46;102084.63;4960174;28;20530;-69
2024/02/28 10:59:11;;;;;;;52.60;19.13;;;;;;;3.33;57.17;102083.56;4978166;28;23303;-69
2024/02/28 11:01:42;;;;;;;53.33;16.85;;;;;;;2.98;57.90;102087.50;4989669;28;20184;-69
2024/02/28 11:04:08;;;;;;;40.47;16.85;;;;;;;3.47;57.27;102086.28;4963015;28;20447;-68
2024/02/28 11:06:33;;;;;;;45.50;16.25;;;;;;;2.93;59.44;102091.72;4989957;28;20041;-69